sensor_id;sensor_type;location;lat;lon;timestamp;temperature;humidity
10314;DHT22;5202;49.138;10.090;2023-04-08T00:00:57;5.20;99.90
10314;DHT22;5202;49.138;10.090;2023-04-08T00:03:26;5.20;99.90
10314;DHT22;5202;49.138;10.090;2023-04-08T00:05:55;5.20;99.90
10314;DHT22;5202;49.138;10.090;2023-04-08T00:08:25;5.20;99.90
10314;DHT22;5202;49.138;10.090;2023-04-08T00:10:53;5.20;99.90
10314;DHT22;5202;49.138;10.090;2023-04-08T00:13:21;5.30;99.90
10314;DHT22;5202;49.138;10.090;2023-04-08T00:15:49;5.30;99.90
10314;DHT22;5202;49.138;10.090;2023-04-08T00:18:18;5.40;99.90
10314;DHT22;5202;49.138;10.090;2023-04-08T00:20:46;5.30;99.90
10314;DHT22;5202;49.138;10.090;2023-04-08T00:23:14;5.30;99.90
10314;DHT22;5202;49.138;10.090;2023-04-08T00:25:44;5.20;99.90
10314;DHT22;5202;49.138;10.090;2023-04-08T00:28:13;5.20;99.90
10314;DHT22;5202;49.138;10.090;2023-04-08T00:30:41;5.20;99.90
10314;DHT22;5202;49.138;10.090;2023-04-08T00:33:09;5.20;99.90
10314;DHT22;5202;49.138;10.090;2023-04-08T00:35:38;5.30;99.90
10314;DHT22;5202;49.138;10.090;2023-04-08T00:38:06;5.40;99.90
10314;DHT22;5202;49.138;10.090;2023-04-08T00:40:34;5.40;99.90
10314;DHT22;5202;49.138;10.090;2023-04-08T00:43:04;5.50;99.90
10314;DHT22;5202;49.138;10.090;2023-04-08T00:45:33;5.50;99.90
10314;DHT22;5202;49.138;10.090;2023-04-08T00:48:01;5.50;99.90
10314;DHT22;5202;49.138;10.090;2023-04-08T00:50:30;5.50;99.90
10314;DHT22;5202;49.138;10.090;2023-04-08T00:52:59;5.60;99.90
10314;DHT22;5202;49.138;10.090;2023-04-08T00:55:27;5.50;99.90
10314;DHT22;5202;49.138;10.090;2023-04-08T00:57:56;5.60;99.90
10314;DHT22;5202;49.138;10.090;2023-04-08T01:00:27;5.50;99.90
10314;DHT22;5202;49.138;10.090;2023-04-08T01:03:04;5.60;99.90
10314;DHT22;5202;49.138;10.090;2023-04-08T01:05:42;5.70;99.90
10314;DHT22;5202;49.138;10.090;2023-04-08T01:08:15;5.80;99.90
10314;DHT22;5202;49.138;10.090;2023-04-08T01:10:47;5.80;99.90
10314;DHT22;5202;49.138;10.090;2023-04-08T01:13:19;5.90;99.90
10314;DHT22;5202;49.138;10.090;2023-04-08T01:15:52;6.00;99.90
10314;DHT22;5202;49.138;10.090;2023-04-08T01:18:22;6.10;99.90
10314;DHT22;5202;49.138;10.090;2023-04-08T01:20:51;6.10;99.90
10314;DHT22;5202;49.138;10.090;2023-04-08T01:23:31;6.10;99.90
10314;DHT22;5202;49.138;10.090;2023-04-08T01:26:09;6.10;99.90
10314;DHT22;5202;49.138;10.090;2023-04-08T01:28:38;6.20;99.90
10314;DHT22;5202;49.138;10.090;2023-04-08T01:31:09;6.20;99.90
10314;DHT22;5202;49.138;10.090;2023-04-08T01:33:38;6.20;99.90
10314;DHT22;5202;49.138;10.090;2023-04-08T01:36:07;6.30;99.90
10314;DHT22;5202;49.138;10.090;2023-04-08T01:38:37;6.30;99.90
10314;DHT22;5202;49.138;10.090;2023-04-08T01:41:10;6.40;99.90
10314;DHT22;5202;49.138;10.090;2023-04-08T01:43:38;6.40;99.90
10314;DHT22;5202;49.138;10.090;2023-04-08T01:46:12;6.50;99.90
10314;DHT22;5202;49.138;10.090;2023-04-08T01:48:42;6.50;99.90
10314;DHT22;5202;49.138;10.090;2023-04-08T01:51:11;6.50;99.90
10314;DHT22;5202;49.138;10.090;2023-04-08T01:53:40;6.50;99.90
10314;DHT22;5202;49.138;10.090;2023-04-08T01:56:12;6.50;99.90
10314;DHT22;5202;49.138;10.090;2023-04-08T01:58:45;6.50;99.90
10314;DHT22;5202;49.138;10.090;2023-04-08T02:01:20;6.60;99.90
10314;DHT22;5202;49.138;10.090;2023-04-08T02:03:56;6.60;99.90
10314;DHT22;5202;49.138;10.090;2023-04-08T02:06:30;6.60;99.90
10314;DHT22;5202;49.138;10.090;2023-04-08T02:08:58;6.60;99.90
10314;DHT22;5202;49.138;10.090;2023-04-08T02:11:28;6.60;99.90
10314;DHT22;5202;49.138;10.090;2023-04-08T02:13:57;6.60;99.90
10314;DHT22;5202;49.138;10.090;2023-04-08T02:16:53;6.60;99.90
10314;DHT22;5202;49.138;10.090;2023-04-08T02:19:28;6.60;99.90
10314;DHT22;5202;49.138;10.090;2023-04-08T02:22:01;6.60;99.90
10314;DHT22;5202;49.138;10.090;2023-04-08T02:24:33;6.60;99.90
10314;DHT22;5202;49.138;10.090;2023-04-08T02:27:04;6.50;99.90
10314;DHT22;5202;49.138;10.090;2023-04-08T02:29:33;6.50;99.90
10314;DHT22;5202;49.138;10.090;2023-04-08T02:32:03;6.50;99.90
10314;DHT22;5202;49.138;10.090;2023-04-08T02:34:34;6.50;99.90
10314;DHT22;5202;49.138;10.090;2023-04-08T02:37:03;6.50;99.90
10314;DHT22;5202;49.138;10.090;2023-04-08T02:39:32;6.50;99.90
10314;DHT22;5202;49.138;10.090;2023-04-08T02:42:00;6.50;99.90
10314;DHT22;5202;49.138;10.090;2023-04-08T02:44:30;6.40;99.90
10314;DHT22;5202;49.138;10.090;2023-04-08T02:47:01;6.40;99.90
10314;DHT22;5202;49.138;10.090;2023-04-08T02:49:29;6.40;99.90
10314;DHT22;5202;49.138;10.090;2023-04-08T02:51:57;6.30;99.90
10314;DHT22;5202;49.138;10.090;2023-04-08T02:54:26;6.30;99.90
10314;DHT22;5202;49.138;10.090;2023-04-08T02:56:54;6.30;99.90
10314;DHT22;5202;49.138;10.090;2023-04-08T02:59:22;6.30;99.90
10314;DHT22;5202;49.138;10.090;2023-04-08T03:01:52;6.30;99.90
10314;DHT22;5202;49.138;10.090;2023-04-08T03:04:20;6.30;99.90
10314;DHT22;5202;49.138;10.090;2023-04-08T03:06:49;6.30;99.90
10314;DHT22;5202;49.138;10.090;2023-04-08T03:09:17;6.40;99.90
10314;DHT22;5202;49.138;10.090;2023-04-08T03:11:45;6.40;99.90
10314;DHT22;5202;49.138;10.090;2023-04-08T03:14:18;6.50;99.90
10314;DHT22;5202;49.138;10.090;2023-04-08T03:16:47;6.50;99.90
10314;DHT22;5202;49.138;10.090;2023-04-08T03:19:17;6.50;99.90
10314;DHT22;5202;49.138;10.090;2023-04-08T03:21:45;6.50;99.90
10314;DHT22;5202;49.138;10.090;2023-04-08T03:24:13;6.50;99.90
10314;DHT22;5202;49.138;10.090;2023-04-08T03:26:41;6.50;99.90
10314;DHT22;5202;49.138;10.090;2023-04-08T03:29:09;6.50;99.90
10314;DHT22;5202;49.138;10.090;2023-04-08T03:31:39;6.50;99.90
10314;DHT22;5202;49.138;10.090;2023-04-08T03:34:07;6.50;99.90
10314;DHT22;5202;49.138;10.090;2023-04-08T03:36:37;6.50;99.90
10314;DHT22;5202;49.138;10.090;2023-04-08T03:39:05;6.40;99.90
10314;DHT22;5202;49.138;10.090;2023-04-08T03:41:33;6.40;99.90
10314;DHT22;5202;49.138;10.090;2023-04-08T03:44:02;6.40;99.90
10314;DHT22;5202;49.138;10.090;2023-04-08T03:46:30;6.40;99.90
10314;DHT22;5202;49.138;10.090;2023-04-08T03:48:58;6.30;99.90
10314;DHT22;5202;49.138;10.090;2023-04-08T03:51:27;6.30;99.90
10314;DHT22;5202;49.138;10.090;2023-04-08T03:53:56;6.40;99.90
10314;DHT22;5202;49.138;10.090;2023-04-08T03:56:25;6.40;99.90
10314;DHT22;5202;49.138;10.090;2023-04-08T03:58:53;6.50;99.90
10314;DHT22;5202;49.138;10.090;2023-04-08T04:01:21;6.50;99.90
10314;DHT22;5202;49.138;10.090;2023-04-08T04:04:23;6.50;99.90
10314;DHT22;5202;49.138;10.090;2023-04-08T04:06:52;6.50;99.90
10314;DHT22;5202;49.138;10.090;2023-04-08T04:09:23;6.40;99.90
10314;DHT22;5202;49.138;10.090;2023-04-08T04:11:51;6.50;99.90
10314;DHT22;5202;49.138;10.090;2023-04-08T04:14:19;6.50;99.90
10314;DHT22;5202;49.138;10.090;2023-04-08T04:16:47;6.40;99.90
10314;DHT22;5202;49.138;10.090;2023-04-08T04:19:16;6.30;99.90
10314;DHT22;5202;49.138;10.090;2023-04-08T04:21:45;6.30;99.90
10314;DHT22;5202;49.138;10.090;2023-04-08T04:24:13;6.20;99.90
10314;DHT22;5202;49.138;10.090;2023-04-08T04:26:43;6.30;99.90
10314;DHT22;5202;49.138;10.090;2023-04-08T04:29:11;6.20;99.90
10314;DHT22;5202;49.138;10.090;2023-04-08T04:31:39;6.20;99.90
10314;DHT22;5202;49.138;10.090;2023-04-08T04:34:08;6.30;99.90
10314;DHT22;5202;49.138;10.090;2023-04-08T04:36:36;6.30;99.90
10314;DHT22;5202;49.138;10.090;2023-04-08T04:39:05;6.30;99.90
10314;DHT22;5202;49.138;10.090;2023-04-08T04:41:33;6.30;99.90
10314;DHT22;5202;49.138;10.090;2023-04-08T04:44:07;6.20;99.90
10314;DHT22;5202;49.138;10.090;2023-04-08T04:46:42;6.30;99.90
10314;DHT22;5202;49.138;10.090;2023-04-08T04:49:11;6.30;99.90
10314;DHT22;5202;49.138;10.090;2023-04-08T04:51:40;6.30;99.90
10314;DHT22;5202;49.138;10.090;2023-04-08T04:54:11;6.40;99.90
10314;DHT22;5202;49.138;10.090;2023-04-08T04:56:39;6.40;99.90
10314;DHT22;5202;49.138;10.090;2023-04-08T04:59:09;6.40;99.90
10314;DHT22;5202;49.138;10.090;2023-04-08T05:01:37;6.50;99.90
10314;DHT22;5202;49.138;10.090;2023-04-08T05:04:07;6.50;99.90
10314;DHT22;5202;49.138;10.090;2023-04-08T05:06:35;6.50;99.90
10314;DHT22;5202;49.138;10.090;2023-04-08T05:09:03;6.40;99.90
10314;DHT22;5202;49.138;10.090;2023-04-08T05:11:31;6.30;99.90
10314;DHT22;5202;49.138;10.090;2023-04-08T05:14:00;6.30;99.90
10314;DHT22;5202;49.138;10.090;2023-04-08T05:16:30;6.30;99.90
10314;DHT22;5202;49.138;10.090;2023-04-08T05:18:58;6.20;99.90
10314;DHT22;5202;49.138;10.090;2023-04-08T05:21:26;6.20;99.90
10314;DHT22;5202;49.138;10.090;2023-04-08T05:23:55;6.20;99.90
10314;DHT22;5202;49.138;10.090;2023-04-08T05:26:23;6.30;99.90
10314;DHT22;5202;49.138;10.090;2023-04-08T05:28:52;6.30;99.90
10314;DHT22;5202;49.138;10.090;2023-04-08T05:31:20;6.20;99.90
10314;DHT22;5202;49.138;10.090;2023-04-08T05:33:50;6.20;99.90
10314;DHT22;5202;49.138;10.090;2023-04-08T05:36:18;6.10;99.90
10314;DHT22;5202;49.138;10.090;2023-04-08T05:38:46;6.00;99.90
10314;DHT22;5202;49.138;10.090;2023-04-08T05:41:15;6.10;99.90
10314;DHT22;5202;49.138;10.090;2023-04-08T05:43:43;6.10;99.90
10314;DHT22;5202;49.138;10.090;2023-04-08T05:46:11;6.10;99.90
10314;DHT22;5202;49.138;10.090;2023-04-08T05:48:40;6.20;99.90
10314;DHT22;5202;49.138;10.090;2023-04-08T05:51:13;6.20;99.90
10314;DHT22;5202;49.138;10.090;2023-04-08T05:53:42;6.10;99.90
10314;DHT22;5202;49.138;10.090;2023-04-08T05:56:12;6.10;99.90
10314;DHT22;5202;49.138;10.090;2023-04-08T05:58:40;6.10;99.90
10314;DHT22;5202;49.138;10.090;2023-04-08T06:01:08;6.20;99.90
10314;DHT22;5202;49.138;10.090;2023-04-08T06:04:12;6.20;99.90
10314;DHT22;5202;49.138;10.090;2023-04-08T06:06:48;6.20;99.90
10314;DHT22;5202;49.138;10.090;2023-04-08T06:09:16;6.30;99.90
10314;DHT22;5202;49.138;10.090;2023-04-08T06:11:44;6.40;99.90
10314;DHT22;5202;49.138;10.090;2023-04-08T06:14:14;6.40;99.90
10314;DHT22;5202;49.138;10.090;2023-04-08T06:16:42;6.40;99.90
10314;DHT22;5202;49.138;10.090;2023-04-08T06:19:10;6.50;99.90
10314;DHT22;5202;49.138;10.090;2023-04-08T06:21:38;6.50;99.90
10314;DHT22;5202;49.138;10.090;2023-04-08T06:24:08;6.60;99.90
10314;DHT22;5202;49.138;10.090;2023-04-08T06:26:36;6.60;99.90
10314;DHT22;5202;49.138;10.090;2023-04-08T06:29:05;6.50;99.90
10314;DHT22;5202;49.138;10.090;2023-04-08T06:31:34;6.60;99.90
10314;DHT22;5202;49.138;10.090;2023-04-08T06:34:02;6.60;99.90
10314;DHT22;5202;49.138;10.090;2023-04-08T06:36:30;6.60;99.90
10314;DHT22;5202;49.138;10.090;2023-04-08T06:38:58;6.50;99.90
10314;DHT22;5202;49.138;10.090;2023-04-08T06:41:28;6.50;99.90
10314;DHT22;5202;49.138;10.090;2023-04-08T06:44:02;6.50;99.90
10314;DHT22;5202;49.138;10.090;2023-04-08T06:46:31;6.50;99.90
10314;DHT22;5202;49.138;10.090;2023-04-08T06:48:59;6.50;99.90
10314;DHT22;5202;49.138;10.090;2023-04-08T06:51:30;6.50;99.90
10314;DHT22;5202;49.138;10.090;2023-04-08T06:53:58;6.50;99.90
10314;DHT22;5202;49.138;10.090;2023-04-08T06:56:28;6.60;99.90
10314;DHT22;5202;49.138;10.090;2023-04-08T06:59:03;6.60;99.90
10314;DHT22;5202;49.138;10.090;2023-04-08T07:01:31;6.60;99.90
10314;DHT22;5202;49.138;10.090;2023-04-08T07:04:00;6.60;99.90
10314;DHT22;5202;49.138;10.090;2023-04-08T07:06:28;6.60;99.90
10314;DHT22;5202;49.138;10.090;2023-04-08T07:08:57;6.60;99.90
10314;DHT22;5202;49.138;10.090;2023-04-08T07:11:25;6.70;99.90
10314;DHT22;5202;49.138;10.090;2023-04-08T07:13:55;6.70;99.90
10314;DHT22;5202;49.138;10.090;2023-04-08T07:16:23;6.60;99.90
10314;DHT22;5202;49.138;10.090;2023-04-08T07:18:51;6.60;99.90
10314;DHT22;5202;49.138;10.090;2023-04-08T07:21:19;6.70;99.90
10314;DHT22;5202;49.138;10.090;2023-04-08T07:23:48;6.70;99.90
10314;DHT22;5202;49.138;10.090;2023-04-08T07:26:16;6.80;99.90
10314;DHT22;5202;49.138;10.090;2023-04-08T07:28:44;6.80;99.90
10314;DHT22;5202;49.138;10.090;2023-04-08T07:31:16;6.80;99.90
10314;DHT22;5202;49.138;10.090;2023-04-08T07:33:44;6.90;99.90
10314;DHT22;5202;49.138;10.090;2023-04-08T07:36:13;7.00;99.90
10314;DHT22;5202;49.138;10.090;2023-04-08T07:38:44;7.10;99.90
10314;DHT22;5202;49.138;10.090;2023-04-08T07:41:12;7.10;99.90
10314;DHT22;5202;49.138;10.090;2023-04-08T07:43:40;7.20;99.90
10314;DHT22;5202;49.138;10.090;2023-04-08T07:46:09;7.20;99.90
10314;DHT22;5202;49.138;10.090;2023-04-08T07:48:38;7.30;99.90
10314;DHT22;5202;49.138;10.090;2023-04-08T07:51:08;7.20;99.90
10314;DHT22;5202;49.138;10.090;2023-04-08T07:53:38;7.20;99.90
10314;DHT22;5202;49.138;10.090;2023-04-08T07:56:11;7.20;99.90
10314;DHT22;5202;49.138;10.090;2023-04-08T07:58:40;7.30;99.00
10314;DHT22;5202;49.138;10.090;2023-04-08T08:01:18;7.40;99.30
10314;DHT22;5202;49.138;10.090;2023-04-08T08:04:13;7.40;98.30
10314;DHT22;5202;49.138;10.090;2023-04-08T08:06:42;7.50;98.30
10314;DHT22;5202;49.138;10.090;2023-04-08T08:09:10;7.60;98.40
10314;DHT22;5202;49.138;10.090;2023-04-08T08:11:38;7.80;98.20
10314;DHT22;5202;49.138;10.090;2023-04-08T08:14:06;7.80;98.10
10314;DHT22;5202;49.138;10.090;2023-04-08T08:16:35;7.80;97.60
10314;DHT22;5202;49.138;10.090;2023-04-08T08:19:04;7.90;97.40
10314;DHT22;5202;49.138;10.090;2023-04-08T08:21:35;7.80;97.40
10314;DHT22;5202;49.138;10.090;2023-04-08T08:24:05;7.90;97.70
10314;DHT22;5202;49.138;10.090;2023-04-08T08:26:34;7.90;96.50
10314;DHT22;5202;49.138;10.090;2023-04-08T08:29:03;7.90;96.40
10314;DHT22;5202;49.138;10.090;2023-04-08T08:31:34;7.80;96.30
10314;DHT22;5202;49.138;10.090;2023-04-08T08:34:02;7.60;95.90
10314;DHT22;5202;49.138;10.090;2023-04-08T08:36:30;7.70;96.80
10314;DHT22;5202;49.138;10.090;2023-04-08T08:39:06;7.70;97.10
10314;DHT22;5202;49.138;10.090;2023-04-08T08:41:34;7.80;96.80
10314;DHT22;5202;49.138;10.090;2023-04-08T08:44:05;7.80;97.00
10314;DHT22;5202;49.138;10.090;2023-04-08T08:46:34;7.90;97.60
10314;DHT22;5202;49.138;10.090;2023-04-08T08:49:02;8.00;98.20
10314;DHT22;5202;49.138;10.090;2023-04-08T08:51:31;8.00;96.90
10314;DHT22;5202;49.138;10.090;2023-04-08T08:54:01;7.90;97.00
10314;DHT22;5202;49.138;10.090;2023-04-08T08:56:32;7.90;96.80
10314;DHT22;5202;49.138;10.090;2023-04-08T08:59:00;7.80;96.90
10314;DHT22;5202;49.138;10.090;2023-04-08T09:01:30;7.60;97.30
10314;DHT22;5202;49.138;10.090;2023-04-08T09:04:10;7.50;97.40
10314;DHT22;5202;49.138;10.090;2023-04-08T09:06:42;7.50;97.40
10314;DHT22;5202;49.138;10.090;2023-04-08T09:09:12;7.40;97.00
10314;DHT22;5202;49.138;10.090;2023-04-08T09:11:43;7.30;97.30
10314;DHT22;5202;49.138;10.090;2023-04-08T09:14:20;7.30;98.00
10314;DHT22;5202;49.138;10.090;2023-04-08T09:16:48;7.40;98.70
10314;DHT22;5202;49.138;10.090;2023-04-08T09:19:17;7.40;98.20
10314;DHT22;5202;49.138;10.090;2023-04-08T09:22:03;7.30;98.70
10314;DHT22;5202;49.138;10.090;2023-04-08T09:24:35;7.30;98.70
10314;DHT22;5202;49.138;10.090;2023-04-08T09:27:05;7.30;99.10
10314;DHT22;5202;49.138;10.090;2023-04-08T09:29:34;7.30;99.40
10314;DHT22;5202;49.138;10.090;2023-04-08T09:32:05;7.40;99.90
10314;DHT22;5202;49.138;10.090;2023-04-08T09:34:34;7.50;99.90
10314;DHT22;5202;49.138;10.090;2023-04-08T09:37:02;7.60;99.90
10314;DHT22;5202;49.138;10.090;2023-04-08T09:39:30;7.60;99.90
10314;DHT22;5202;49.138;10.090;2023-04-08T09:41:59;7.50;99.90
10314;DHT22;5202;49.138;10.090;2023-04-08T09:44:32;7.40;99.90
10314;DHT22;5202;49.138;10.090;2023-04-08T09:47:09;7.30;99.90
10314;DHT22;5202;49.138;10.090;2023-04-08T09:49:45;7.30;99.90
10314;DHT22;5202;49.138;10.090;2023-04-08T09:52:21;7.30;99.90
10314;DHT22;5202;49.138;10.090;2023-04-08T09:55:00;7.40;99.90
10314;DHT22;5202;49.138;10.090;2023-04-08T09:57:35;7.40;99.90
10314;DHT22;5202;49.138;10.090;2023-04-08T10:00:11;7.40;99.90
10314;DHT22;5202;49.138;10.090;2023-04-08T10:02:51;7.40;99.90
10314;DHT22;5202;49.138;10.090;2023-04-08T10:05:24;7.50;99.90
10314;DHT22;5202;49.138;10.090;2023-04-08T10:08:16;7.50;99.90
10314;DHT22;5202;49.138;10.090;2023-04-08T10:10:45;7.50;99.90
10314;DHT22;5202;49.138;10.090;2023-04-08T10:13:14;7.40;99.90
10314;DHT22;5202;49.138;10.090;2023-04-08T10:15:44;7.50;99.90
10314;DHT22;5202;49.138;10.090;2023-04-08T10:18:30;7.60;99.90
10314;DHT22;5202;49.138;10.090;2023-04-08T10:21:02;7.50;99.90
10314;DHT22;5202;49.138;10.090;2023-04-08T10:23:53;7.50;99.90
10314;DHT22;5202;49.138;10.090;2023-04-08T10:26:45;7.40;99.90
10314;DHT22;5202;49.138;10.090;2023-04-08T10:29:30;7.40;99.90
10314;DHT22;5202;49.138;10.090;2023-04-08T10:32:03;7.50;99.90
10314;DHT22;5202;49.138;10.090;2023-04-08T10:34:32;7.60;99.90
10314;DHT22;5202;49.138;10.090;2023-04-08T10:37:00;7.60;99.90
10314;DHT22;5202;49.138;10.090;2023-04-08T10:39:32;7.50;99.90
10314;DHT22;5202;49.138;10.090;2023-04-08T10:42:02;7.60;99.90
10314;DHT22;5202;49.138;10.090;2023-04-08T10:44:30;7.50;99.90
10314;DHT22;5202;49.138;10.090;2023-04-08T10:46:59;7.60;99.90
10314;DHT22;5202;49.138;10.090;2023-04-08T10:49:33;7.60;99.90
10314;DHT22;5202;49.138;10.090;2023-04-08T10:52:06;7.70;99.90
10314;DHT22;5202;49.138;10.090;2023-04-08T10:54:36;7.90;99.90
10314;DHT22;5202;49.138;10.090;2023-04-08T10:57:05;7.90;99.90
10314;DHT22;5202;49.138;10.090;2023-04-08T10:59:34;7.90;99.90
10314;DHT22;5202;49.138;10.090;2023-04-08T11:02:03;7.90;99.90
10314;DHT22;5202;49.138;10.090;2023-04-08T11:04:32;8.00;99.90
10314;DHT22;5202;49.138;10.090;2023-04-08T11:07:05;8.00;99.90
10314;DHT22;5202;49.138;10.090;2023-04-08T11:09:34;8.10;99.90
10314;DHT22;5202;49.138;10.090;2023-04-08T11:12:02;8.00;99.90
10314;DHT22;5202;49.138;10.090;2023-04-08T11:14:31;7.90;99.90
10314;DHT22;5202;49.138;10.090;2023-04-08T11:16:59;7.90;99.90
10314;DHT22;5202;49.138;10.090;2023-04-08T11:19:28;7.90;99.90
10314;DHT22;5202;49.138;10.090;2023-04-08T11:21:57;7.90;99.90
10314;DHT22;5202;49.138;10.090;2023-04-08T11:24:32;8.00;99.90
10314;DHT22;5202;49.138;10.090;2023-04-08T11:27:01;8.10;99.90
10314;DHT22;5202;49.138;10.090;2023-04-08T11:29:29;8.10;99.90
10314;DHT22;5202;49.138;10.090;2023-04-08T11:31:58;8.10;99.90
10314;DHT22;5202;49.138;10.090;2023-04-08T11:34:27;8.10;99.90
10314;DHT22;5202;49.138;10.090;2023-04-08T11:36:56;8.20;99.90
10314;DHT22;5202;49.138;10.090;2023-04-08T11:39:25;8.40;99.90
10314;DHT22;5202;49.138;10.090;2023-04-08T11:41:53;8.50;99.90
10314;DHT22;5202;49.138;10.090;2023-04-08T11:44:29;8.50;99.90
10314;DHT22;5202;49.138;10.090;2023-04-08T11:47:01;8.50;99.90
10314;DHT22;5202;49.138;10.090;2023-04-08T11:49:43;8.50;99.90
10314;DHT22;5202;49.138;10.090;2023-04-08T11:52:13;8.50;99.90
10314;DHT22;5202;49.138;10.090;2023-04-08T11:54:42;8.60;99.90
10314;DHT22;5202;49.138;10.090;2023-04-08T11:57:10;8.80;99.50
10314;DHT22;5202;49.138;10.090;2023-04-08T11:59:40;8.70;99.00
10314;DHT22;5202;49.138;10.090;2023-04-08T12:02:08;8.80;99.30
10314;DHT22;5202;49.138;10.090;2023-04-08T12:04:37;8.90;99.70
10314;DHT22;5202;49.138;10.090;2023-04-08T12:07:31;8.90;99.30
10314;DHT22;5202;49.138;10.090;2023-04-08T12:09:59;8.80;99.70
10314;DHT22;5202;49.138;10.090;2023-04-08T12:12:27;8.70;99.50
10314;DHT22;5202;49.138;10.090;2023-04-08T12:14:55;8.70;99.50
10314;DHT22;5202;49.138;10.090;2023-04-08T12:17:24;8.60;98.80
10314;DHT22;5202;49.138;10.090;2023-04-08T12:19:52;8.50;99.10
10314;DHT22;5202;49.138;10.090;2023-04-08T12:22:20;8.50;98.40
10314;DHT22;5202;49.138;10.090;2023-04-08T12:24:50;8.50;99.20
10314;DHT22;5202;49.138;10.090;2023-04-08T12:27:18;8.50;99.50
10314;DHT22;5202;49.138;10.090;2023-04-08T12:29:46;8.50;99.80
10314;DHT22;5202;49.138;10.090;2023-04-08T12:32:15;8.50;99.30
10314;DHT22;5202;49.138;10.090;2023-04-08T12:34:44;8.40;99.40
10314;DHT22;5202;49.138;10.090;2023-04-08T12:37:12;8.50;99.90
10314;DHT22;5202;49.138;10.090;2023-04-08T12:39:40;8.50;99.90
10314;DHT22;5202;49.138;10.090;2023-04-08T12:42:10;8.70;99.90
10314;DHT22;5202;49.138;10.090;2023-04-08T12:44:38;8.90;99.90
10314;DHT22;5202;49.138;10.090;2023-04-08T12:47:06;8.90;99.50
10314;DHT22;5202;49.138;10.090;2023-04-08T12:49:34;8.80;99.20
10314;DHT22;5202;49.138;10.090;2023-04-08T12:52:15;8.60;99.60
10314;DHT22;5202;49.138;10.090;2023-04-08T12:54:44;8.60;99.90
10314;DHT22;5202;49.138;10.090;2023-04-08T12:57:14;8.60;99.60
10314;DHT22;5202;49.138;10.090;2023-04-08T12:59:43;8.70;99.90
10314;DHT22;5202;49.138;10.090;2023-04-08T13:02:11;8.90;99.90
10314;DHT22;5202;49.138;10.090;2023-04-08T13:04:39;9.10;99.90
10314;DHT22;5202;49.138;10.090;2023-04-08T13:07:07;9.20;99.70
10314;DHT22;5202;49.138;10.090;2023-04-08T13:09:36;9.20;99.60
10314;DHT22;5202;49.138;10.090;2023-04-08T13:12:04;9.10;99.10
10314;DHT22;5202;49.138;10.090;2023-04-08T13:14:34;9.00;99.30
10314;DHT22;5202;49.138;10.090;2023-04-08T13:17:03;9.00;99.50
10314;DHT22;5202;49.138;10.090;2023-04-08T13:19:31;9.10;99.40
10314;DHT22;5202;49.138;10.090;2023-04-08T13:21:59;9.10;99.40
10314;DHT22;5202;49.138;10.090;2023-04-08T13:24:27;9.10;99.40
10314;DHT22;5202;49.138;10.090;2023-04-08T13:26:55;9.00;99.30
10314;DHT22;5202;49.138;10.090;2023-04-08T13:29:24;9.10;99.80
10314;DHT22;5202;49.138;10.090;2023-04-08T13:31:54;9.20;99.90
10314;DHT22;5202;49.138;10.090;2023-04-08T13:34:22;9.30;99.90
10314;DHT22;5202;49.138;10.090;2023-04-08T13:36:51;9.20;99.70
10314;DHT22;5202;49.138;10.090;2023-04-08T13:39:19;9.30;99.70
10314;DHT22;5202;49.138;10.090;2023-04-08T13:41:47;9.30;99.90
10314;DHT22;5202;49.138;10.090;2023-04-08T13:44:16;9.30;99.60
10314;DHT22;5202;49.138;10.090;2023-04-08T13:46:44;9.20;99.10
10314;DHT22;5202;49.138;10.090;2023-04-08T13:49:14;9.10;99.50
10314;DHT22;5202;49.138;10.090;2023-04-08T13:51:42;9.10;99.90
10314;DHT22;5202;49.138;10.090;2023-04-08T13:54:10;9.10;99.90
10314;DHT22;5202;49.138;10.090;2023-04-08T13:56:39;9.00;99.90
10314;DHT22;5202;49.138;10.090;2023-04-08T13:59:07;9.00;99.90
10314;DHT22;5202;49.138;10.090;2023-04-08T14:01:36;9.00;99.90
10314;DHT22;5202;49.138;10.090;2023-04-08T14:04:12;9.10;99.90
10314;DHT22;5202;49.138;10.090;2023-04-08T14:06:54;9.00;99.90
10314;DHT22;5202;49.138;10.090;2023-04-08T14:09:23;9.00;99.90
10314;DHT22;5202;49.138;10.090;2023-04-08T14:11:52;9.10;99.60
10314;DHT22;5202;49.138;10.090;2023-04-08T14:14:20;9.10;99.90
10314;DHT22;5202;49.138;10.090;2023-04-08T14:16:53;9.20;99.90
10314;DHT22;5202;49.138;10.090;2023-04-08T14:19:23;9.30;99.60
10314;DHT22;5202;49.138;10.090;2023-04-08T14:21:51;9.30;99.90
10314;DHT22;5202;49.138;10.090;2023-04-08T14:24:19;9.20;99.40
10314;DHT22;5202;49.138;10.090;2023-04-08T14:26:48;9.20;99.50
10314;DHT22;5202;49.138;10.090;2023-04-08T14:29:17;9.20;98.80
10314;DHT22;5202;49.138;10.090;2023-04-08T14:31:45;9.10;99.10
10314;DHT22;5202;49.138;10.090;2023-04-08T14:34:13;9.10;99.00
10314;DHT22;5202;49.138;10.090;2023-04-08T14:36:43;9.10;99.90
10314;DHT22;5202;49.138;10.090;2023-04-08T14:39:12;9.20;99.70
10314;DHT22;5202;49.138;10.090;2023-04-08T14:41:40;9.30;99.70
10314;DHT22;5202;49.138;10.090;2023-04-08T14:44:08;9.30;99.40
10314;DHT22;5202;49.138;10.090;2023-04-08T14:46:36;9.30;99.50
10314;DHT22;5202;49.138;10.090;2023-04-08T14:49:05;9.30;98.90
10314;DHT22;5202;49.138;10.090;2023-04-08T14:51:33;9.40;99.40
10314;DHT22;5202;49.138;10.090;2023-04-08T14:54:05;9.50;99.50
10314;DHT22;5202;49.138;10.090;2023-04-08T14:56:33;9.60;99.00
10314;DHT22;5202;49.138;10.090;2023-04-08T14:59:01;9.60;98.60
10314;DHT22;5202;49.138;10.090;2023-04-08T15:01:30;9.70;98.50
10314;DHT22;5202;49.138;10.090;2023-04-08T15:03:59;9.80;98.70
10314;DHT22;5202;49.138;10.090;2023-04-08T15:06:27;9.80;98.70
10314;DHT22;5202;49.138;10.090;2023-04-08T15:08:56;9.90;98.50
10314;DHT22;5202;49.138;10.090;2023-04-08T15:11:26;9.90;98.20
10314;DHT22;5202;49.138;10.090;2023-04-08T15:13:54;10.00;97.20
10314;DHT22;5202;49.138;10.090;2023-04-08T15:16:22;10.00;97.30
10314;DHT22;5202;49.138;10.090;2023-04-08T15:18:51;10.00;97.40
10314;DHT22;5202;49.138;10.090;2023-04-08T15:21:19;10.00;97.50
10314;DHT22;5202;49.138;10.090;2023-04-08T15:23:48;10.00;97.50
10314;DHT22;5202;49.138;10.090;2023-04-08T15:26:16;9.90;97.70
10314;DHT22;5202;49.138;10.090;2023-04-08T15:28:46;9.70;97.50
10314;DHT22;5202;49.138;10.090;2023-04-08T15:31:14;9.60;98.20
10314;DHT22;5202;49.138;10.090;2023-04-08T15:33:43;9.60;98.50
10314;DHT22;5202;49.138;10.090;2023-04-08T15:36:13;9.70;98.70
10314;DHT22;5202;49.138;10.090;2023-04-08T15:38:45;9.50;97.70
10314;DHT22;5202;49.138;10.090;2023-04-08T15:41:17;9.30;98.00
10314;DHT22;5202;49.138;10.090;2023-04-08T15:43:49;9.40;99.10
10314;DHT22;5202;49.138;10.090;2023-04-08T15:46:20;9.30;98.80
10314;DHT22;5202;49.138;10.090;2023-04-08T15:48:49;9.20;99.10
10314;DHT22;5202;49.138;10.090;2023-04-08T15:51:17;9.30;99.10
10314;DHT22;5202;49.138;10.090;2023-04-08T15:53:46;9.30;99.50
10314;DHT22;5202;49.138;10.090;2023-04-08T15:56:16;9.20;99.40
10314;DHT22;5202;49.138;10.090;2023-04-08T15:58:45;9.30;99.90
10314;DHT22;5202;49.138;10.090;2023-04-08T16:01:41;9.30;99.50
10314;DHT22;5202;49.138;10.090;2023-04-08T16:04:09;9.10;99.30